createdAt,value
2023-04-03T00:01:36.263Z,64.20
2023-04-03T00:04:03.100Z,64.20
2023-04-03T00:06:34.544Z,64.30
2023-04-03T00:09:02.065Z,64.30
2023-04-03T00:11:31.450Z,64.40
2023-04-03T00:14:01.193Z,64.30
2023-04-03T00:16:28.221Z,64.30
2023-04-03T00:18:55.220Z,64.30
2023-04-03T00:21:24.214Z,64.20
2023-04-03T00:23:53.158Z,64.20
2023-04-03T00:26:22.191Z,64.30
2023-04-03T00:28:53.540Z,64.20
2023-04-03T00:31:25.325Z,64.30
2023-04-03T00:33:55.054Z,64.10
2023-04-03T00:36:22.038Z,64.10
2023-04-03T00:38:51.721Z,64.10
2023-04-03T00:41:23.648Z,64.10
2023-04-03T00:43:57.623Z,63.90
2023-04-03T00:46:24.617Z,64.00
2023-04-03T00:48:54.052Z,64.00
2023-04-03T00:51:30.195Z,64.00
2023-04-03T00:54:08.361Z,63.90
2023-04-03T00:56:37.720Z,64.00
2023-04-03T00:59:22.161Z,64.00
2023-04-03T01:01:52.323Z,64.00
2023-04-03T01:04:42.868Z,64.00
2023-04-03T01:07:37.991Z,64.00
2023-04-03T01:10:10.667Z,63.60
2023-04-03T01:12:46.765Z,64.00
2023-04-03T01:15:25.089Z,64.00
2023-04-03T01:18:02.045Z,63.90
2023-04-03T01:20:29.162Z,63.90
2023-04-03T01:23:12.089Z,63.90
2023-04-03T01:25:47.797Z,63.70
2023-04-03T01:28:36.780Z,63.80
2023-04-03T01:31:32.780Z,63.80
2023-04-03T01:34:04.612Z,63.80
2023-04-03T01:36:36.005Z,64.00
2023-04-03T01:39:05.807Z,64.00
2023-04-03T01:41:33.310Z,64.00
2023-04-03T01:44:08.977Z,63.90
2023-04-03T01:46:40.568Z,64.00
2023-04-03T01:49:07.436Z,63.90
2023-04-03T01:51:36.996Z,63.90
2023-04-03T01:54:06.186Z,64.00
2023-04-03T01:56:33.085Z,64.00
2023-04-03T01:59:07.066Z,64.00
2023-04-03T02:01:34.086Z,64.00
2023-04-03T02:04:01.587Z,64.00
2023-04-03T02:06:28.523Z,64.00
2023-04-03T02:08:57.983Z,64.00
2023-04-03T02:11:29.686Z,64.00
2023-04-03T02:13:56.960Z,64.00
2023-04-03T02:16:31.999Z,64.00
2023-04-03T02:19:01.536Z,64.00
2023-04-03T02:21:34.898Z,64.00
2023-04-03T02:24:04.103Z,64.00
2023-04-03T02:26:33.012Z,64.00
2023-04-03T02:28:59.852Z,64.00
2023-04-03T02:31:27.180Z,64.00
2023-04-03T02:33:56.632Z,64.00
2023-04-03T02:36:28.231Z,64.00
2023-04-03T02:39:03.803Z,64.00
2023-04-03T02:41:35.982Z,64.00
2023-04-03T02:44:09.809Z,64.00
2023-04-03T02:46:36.790Z,64.00
2023-04-03T02:49:05.053Z,64.00
2023-04-03T02:51:34.655Z,64.00
2023-04-03T02:54:03.783Z,64.00
2023-04-03T02:56:34.556Z,64.00
2023-04-03T02:59:01.517Z,64.00
2023-04-03T03:01:33.495Z,64.00
2023-04-03T03:04:01.428Z,64.00
2023-04-03T03:06:30.545Z,63.90
2023-04-03T03:08:59.589Z,63.90
2023-04-03T03:11:29.040Z,63.90
2023-04-03T03:13:56.315Z,64.50
2023-04-03T03:16:28.610Z,63.90
2023-04-03T03:19:00.730Z,63.90
2023-04-03T03:21:28.140Z,63.90
2023-04-03T03:23:59.793Z,63.90
2023-04-03T03:26:29.749Z,63.90
2023-04-03T03:29:01.096Z,63.90
2023-04-03T03:31:30.485Z,63.90
2023-04-03T03:34:00.420Z,63.80
2023-04-03T03:36:29.340Z,63.90
2023-04-03T03:38:58.842Z,63.80
2023-04-03T03:41:26.059Z,63.70
2023-04-03T03:43:55.329Z,63.70
2023-04-03T03:46:22.410Z,63.60
2023-04-03T03:48:49.352Z,63.60
2023-04-03T03:51:21.697Z,63.50
2023-04-03T03:53:51.775Z,63.30
2023-04-03T03:56:24.649Z,63.40
2023-04-03T03:58:57.180Z,63.40
2023-04-03T04:01:27.340Z,63.40
2023-04-03T04:03:59.581Z,63.50
2023-04-03T04:06:33.115Z,63.30
2023-04-03T04:09:10.100Z,63.20
2023-04-03T04:11:43.982Z,63.20
2023-04-03T04:14:14.796Z,63.30
2023-04-03T04:16:44.488Z,63.20
2023-04-03T04:19:21.136Z,63.20
2023-04-03T04:21:48.050Z,63.20
2023-04-03T04:24:15.572Z,63.20
2023-04-03T04:26:47.909Z,63.20
2023-04-03T04:29:19.125Z,63.10
2023-04-03T04:31:51.473Z,63.10
2023-04-03T04:34:20.702Z,63.10
2023-04-03T04:36:53.204Z,63.10
2023-04-03T04:39:22.834Z,63.10
2023-04-03T04:41:52.393Z,63.00
2023-04-03T04:44:24.249Z,63.10
2023-04-03T04:46:55.687Z,63.10
2023-04-03T04:49:27.117Z,63.10
2023-04-03T04:51:58.480Z,63.20
2023-04-03T04:54:32.297Z,63.20
2023-04-03T04:56:59.445Z,63.10
2023-04-03T04:59:30.380Z,63.10
2023-04-03T05:01:58.852Z,63.10
2023-04-03T05:04:28.465Z,63.20
2023-04-03T05:07:04.425Z,63.20
2023-04-03T05:09:34.565Z,63.10
2023-04-03T05:12:02.897Z,63.20
2023-04-03T05:14:37.380Z,63.20
2023-04-03T05:17:07.539Z,63.20
2023-04-03T05:19:37.243Z,63.20
2023-04-03T05:22:08.114Z,63.20
2023-04-03T05:24:37.868Z,63.20
2023-04-03T05:27:10.297Z,63.20
2023-04-03T05:29:45.195Z,63.10
2023-04-03T05:32:22.168Z,63.20
2023-04-03T05:34:54.773Z,63.20
2023-04-03T05:37:24.456Z,63.20
2023-04-03T05:39:53.442Z,63.10
2023-04-03T05:42:25.569Z,63.20
2023-04-03T05:44:54.495Z,63.10
2023-04-03T05:47:23.710Z,63.10
2023-04-03T05:49:52.865Z,63.20
2023-04-03T05:52:38.273Z,63.20
2023-04-03T05:55:11.418Z,63.10
2023-04-03T05:57:42.819Z,63.30
2023-04-03T06:00:16.412Z,63.30
2023-04-03T06:02:48.914Z,63.30
2023-04-03T06:05:23.575Z,63.30
2023-04-03T06:07:55.555Z,63.30
2023-04-03T06:10:25.012Z,63.30
2023-04-03T06:12:54.451Z,63.30
2023-04-03T06:15:24.287Z,63.30
2023-04-03T06:17:53.284Z,63.30
2023-04-03T06:20:23.158Z,63.30
2023-04-03T06:22:58.652Z,63.30
2023-04-03T06:25:26.119Z,63.30
2023-04-03T06:27:56.384Z,63.20
2023-04-03T06:30:26.134Z,63.30
2023-04-03T06:32:57.888Z,63.30
2023-04-03T06:35:24.772Z,63.30
2023-04-03T06:37:56.312Z,63.30
2023-04-03T06:40:28.374Z,63.40
2023-04-03T06:42:55.432Z,63.40
2023-04-03T06:45:23.238Z,63.50
2023-04-03T06:47:50.225Z,63.50
2023-04-03T06:50:19.606Z,63.40
2023-04-03T06:52:49.041Z,63.40
2023-04-03T06:55:18.357Z,63.40
2023-04-03T06:57:50.378Z,63.50
2023-04-03T07:00:18.021Z,63.40
2023-04-03T07:02:44.934Z,63.50
2023-04-03T07:05:12.582Z,63.50
2023-04-03T07:07:44.452Z,63.60
2023-04-03T07:10:12.174Z,63.50
2023-04-03T07:12:42.150Z,63.50
2023-04-03T07:15:13.890Z,63.40
2023-04-03T07:17:45.669Z,63.50
2023-04-03T07:20:16.143Z,63.50
2023-04-03T07:22:45.296Z,63.40
2023-04-03T07:25:12.092Z,63.30
2023-04-03T07:27:41.111Z,63.30
2023-04-03T07:30:10.807Z,63.30
2023-04-03T07:32:39.839Z,63.40
2023-04-03T07:35:09.599Z,63.40
2023-04-03T07:37:36.604Z,63.50
2023-04-03T07:40:06.850Z,63.40
2023-04-03T07:42:39.006Z,63.50
2023-04-03T07:45:06.622Z,63.40
2023-04-03T07:47:36.099Z,63.40
2023-04-03T07:50:09.034Z,63.40
2023-04-03T07:52:38.384Z,63.40
2023-04-03T07:55:05.871Z,63.30
2023-04-03T07:57:35.167Z,63.40
2023-04-03T08:00:08.050Z,63.40
2023-04-03T08:02:51.356Z,63.20
2023-04-03T08:05:24.475Z,63.20
2023-04-03T08:07:51.368Z,63.20
2023-04-03T08:10:18.252Z,63.10
2023-04-03T08:12:49.711Z,63.10
2023-04-03T08:15:18.948Z,63.10
2023-04-03T08:17:46.556Z,63.20
2023-04-03T08:20:13.493Z,63.10
2023-04-03T08:22:40.495Z,63.10
2023-04-03T08:25:10.684Z,63.10
2023-04-03T08:27:38.108Z,63.10
2023-04-03T08:30:06.077Z,63.00
2023-04-03T08:32:36.024Z,62.80
2023-04-03T08:35:06.330Z,62.70
2023-04-03T08:37:37.554Z,62.70
2023-04-03T08:40:07.945Z,62.60
2023-04-03T08:43:12.235Z,62.70
2023-04-03T08:45:51.361Z,62.50
2023-04-03T08:48:30.391Z,62.50
2023-04-03T08:51:12.909Z,62.60
2023-04-03T08:53:47.401Z,62.40
2023-04-03T08:56:18.893Z,62.40
2023-04-03T08:59:01.288Z,62.30
2023-04-03T09:01:42.952Z,61.80
2023-04-03T09:04:20.268Z,61.60
2023-04-03T09:06:55.841Z,61.70
2023-04-03T09:09:42.267Z,61.40
2023-04-03T09:12:26.540Z,61.30
2023-04-03T09:15:37.724Z,61.00
2023-04-03T09:18:21.611Z,60.60
2023-04-03T09:21:26.278Z,60.90
2023-04-03T09:24:00.431Z,60.30
2023-04-03T09:26:36.370Z,61.00
2023-04-03T09:29:13.960Z,61.00
2023-04-03T09:31:47.655Z,60.80
2023-04-03T09:34:36.332Z,60.70
2023-04-03T09:37:07.077Z,60.30
2023-04-03T09:39:54.214Z,60.60
2023-04-03T09:42:27.990Z,60.20
2023-04-03T09:45:03.431Z,60.40
2023-04-03T09:47:34.837Z,60.50
2023-04-03T09:50:14.097Z,60.60
2023-04-03T09:52:52.584Z,60.00
2023-04-03T09:55:29.903Z,60.20
2023-04-03T09:58:04.844Z,60.30
2023-04-03T10:00:38.551Z,60.50
2023-04-03T10:03:25.898Z,61.10
2023-04-03T10:05:55.409Z,60.30
2023-04-03T10:08:27.771Z,61.00
2023-04-03T10:11:20.653Z,60.20
2023-04-03T10:14:06.246Z,59.60
2023-04-03T10:16:46.118Z,59.20
2023-04-03T10:19:42.151Z,59.40
2023-04-03T10:22:28.840Z,58.90
2023-04-03T10:25:33.401Z,59.50
2023-04-03T10:28:23.633Z,59.50
2023-04-03T10:31:16.346Z,59.20
2023-04-03T10:34:30.556Z,59.30
2023-04-03T10:37:26.946Z,59.50
2023-04-03T10:40:54.056Z,58.40
2023-04-03T10:43:28.677Z,58.60
2023-04-03T10:46:34.015Z,59.10
2023-04-03T10:49:59.330Z,59.00
2023-04-03T10:52:57.439Z,58.40
2023-04-03T10:55:27.336Z,57.80
2023-04-03T10:58:00.638Z,58.60
2023-04-03T11:00:51.459Z,58.30
2023-04-03T11:03:41.957Z,57.40
2023-04-03T11:06:18.211Z,57.90
2023-04-03T11:08:49.828Z,57.70
2023-04-03T11:11:34.498Z,57.50
2023-04-03T11:14:14.294Z,56.50
2023-04-03T11:17:20.222Z,57.20
2023-04-03T11:20:20.816Z,55.90
2023-04-03T11:23:04.806Z,55.80
2023-04-03T11:25:38.457Z,55.70
2023-04-03T11:28:14.264Z,56.00
2023-04-03T11:30:57.529Z,55.70
2023-04-03T11:34:01.417Z,53.90
2023-04-03T11:36:38.155Z,53.80
2023-04-03T11:39:39.443Z,54.70
2023-04-03T11:42:38.945Z,52.60
2023-04-03T11:45:27.633Z,53.70
2023-04-03T11:47:55.975Z,53.70
2023-04-03T11:50:34.799Z,54.20
2023-04-03T11:53:14.035Z,52.60
2023-04-03T11:55:55.797Z,53.50
2023-04-03T11:58:37.962Z,53.30
2023-04-03T12:01:11.122Z,51.70
2023-04-03T12:03:40.762Z,52.00
2023-04-03T12:06:19.883Z,51.50
2023-04-03T12:08:57.425Z,51.20
2023-04-03T12:11:36.560Z,50.70
2023-04-03T12:14:20.060Z,50.80
2023-04-03T12:16:48.653Z,50.10
2023-04-03T12:19:45.735Z,50.70
2023-04-03T12:22:17.981Z,48.20
2023-04-03T12:24:52.788Z,49.70
2023-04-03T12:27:35.441Z,49.30
2023-04-03T12:30:05.707Z,48.50
2023-04-03T12:33:09.571Z,49.20
2023-04-03T12:36:08.349Z,48.60
2023-04-03T12:39:18.119Z,48.40
2023-04-03T12:41:59.245Z,47.90
2023-04-03T12:44:41.428Z,48.80
2023-04-03T12:47:29.573Z,48.30
2023-04-03T12:50:00.500Z,47.60
2023-04-03T12:52:52.408Z,47.70
2023-04-03T12:55:21.813Z,44.90
2023-04-03T12:57:49.348Z,47.70
2023-04-03T13:00:35.694Z,46.60
2023-04-03T13:03:06.576Z,46.30
2023-04-03T13:05:39.310Z,46.80
2023-04-03T13:08:17.152Z,46.60
2023-04-03T13:11:11.451Z,45.10
2023-04-03T13:13:41.903Z,45.60
2023-04-03T13:16:12.257Z,45.60
2023-04-03T13:18:39.435Z,45.00
2023-04-03T13:21:33.490Z,45.30
2023-04-03T13:24:14.914Z,44.30
2023-04-03T13:26:44.433Z,44.90
2023-04-03T13:29:43.735Z,44.80
2023-04-03T13:32:24.711Z,43.60
2023-04-03T13:34:58.314Z,43.20
2023-04-03T13:37:32.002Z,45.00
2023-04-03T13:40:19.191Z,44.50
2023-04-03T13:43:01.979Z,44.30
2023-04-03T13:45:38.525Z,44.40
2023-04-03T13:48:24.709Z,43.40
2023-04-03T13:51:06.036Z,43.80
2023-04-03T13:53:42.135Z,43.30
2023-04-03T13:56:39.663Z,43.50
2023-04-03T13:59:17.280Z,42.50
2023-04-03T14:01:49.524Z,41.80
2023-04-03T14:04:48.230Z,42.70
2023-04-03T14:07:20.895Z,41.70
2023-04-03T14:09:48.758Z,42.60
2023-04-03T14:12:38.197Z,42.70
2023-04-03T14:15:27.337Z,41.40
2023-04-03T14:18:01.279Z,41.10
2023-04-03T14:20:30.018Z,42.30
2023-04-03T14:23:01.929Z,42.10
2023-04-03T14:25:34.947Z,42.10
2023-04-03T14:28:17.028Z,41.40
2023-04-03T14:30:48.506Z,41.30
2023-04-03T14:33:22.061Z,41.20
2023-04-03T14:35:50.111Z,40.50
2023-04-03T14:38:31.542Z,40.70
2023-04-03T14:41:09.702Z,40.40
2023-04-03T14:43:43.574Z,40.80
2023-04-03T14:46:42.991Z,40.60
2023-04-03T14:49:29.018Z,39.00
2023-04-03T14:52:00.652Z,40.20
2023-04-03T14:54:30.453Z,40.20
2023-04-03T14:57:06.829Z,40.30
2023-04-03T14:59:38.468Z,40.00
2023-04-03T15:02:23.102Z,40.10
2023-04-03T15:04:53.637Z,39.20
2023-04-03T15:07:24.779Z,39.70
2023-04-03T15:09:56.981Z,39.60
2023-04-03T15:12:25.663Z,39.70
2023-04-03T15:14:59.961Z,39.30
2023-04-03T15:17:38.075Z,39.30
2023-04-03T15:20:23.043Z,38.90
2023-04-03T15:22:50.169Z,38.20
2023-04-03T15:25:19.984Z,39.40
2023-04-03T15:27:49.707Z,39.50
2023-04-03T15:30:22.501Z,39.60
2023-04-03T15:32:50.282Z,39.50
2023-04-03T15:35:17.628Z,39.50
2023-04-03T15:37:44.495Z,39.30
2023-04-03T15:40:11.837Z,39.20
2023-04-03T15:42:41.952Z,39.20
2023-04-03T15:45:09.636Z,39.00
2023-04-03T15:47:42.476Z,39.30
2023-04-03T15:50:12.824Z,39.40
2023-04-03T15:52:41.994Z,39.50
2023-04-03T15:55:09.188Z,39.20
2023-04-03T16:00:14.194Z,39.10
2023-04-03T16:02:46.755Z,39.10
2023-04-03T16:05:16.631Z,39.10
2023-04-03T16:07:45.228Z,39.20
2023-04-03T16:10:14.167Z,39.20
2023-04-03T16:12:46.105Z,39.30
2023-04-03T16:15:16.240Z,39.40
2023-04-03T16:17:43.344Z,39.40
2023-04-03T16:20:15.796Z,39.30
2023-04-03T16:22:49.748Z,39.30
2023-04-03T16:25:19.379Z,39.00
2023-04-03T16:27:48.663Z,39.30
2023-04-03T16:30:17.773Z,39.40
2023-04-03T16:32:44.953Z,39.20
2023-04-03T16:35:14.190Z,39.30
2023-04-03T16:37:41.318Z,39.60
2023-04-03T16:40:09.598Z,39.60
2023-04-03T16:42:38.927Z,39.60
2023-04-03T16:45:09.516Z,39.40
2023-04-03T16:47:41.087Z,39.40
2023-04-03T16:50:09.124Z,39.50
2023-04-03T16:52:36.319Z,39.60
2023-04-03T16:55:06.003Z,39.60
2023-04-03T16:57:35.255Z,39.60
2023-04-03T17:00:04.764Z,39.60
2023-04-03T17:02:33.870Z,39.60
2023-04-03T17:05:03.825Z,39.80
2023-04-03T17:07:30.660Z,39.70
2023-04-03T17:09:59.621Z,39.80
2023-04-03T17:12:26.774Z,39.70
2023-04-03T17:14:56.417Z,39.80
2023-04-03T17:17:28.341Z,39.90
2023-04-03T17:19:56.455Z,39.70
2023-04-03T17:22:26.280Z,40.00
2023-04-03T17:24:53.242Z,39.80
2023-04-03T17:27:20.148Z,39.90
2023-04-03T17:29:49.285Z,40.10
2023-04-03T17:32:20.943Z,40.20
2023-04-03T17:34:54.824Z,40.10
2023-04-03T17:37:24.300Z,40.20
2023-04-03T17:39:51.151Z,40.10
2023-04-03T17:42:21.266Z,40.10
2023-04-03T17:44:48.100Z,40.20
2023-04-03T17:47:17.277Z,40.20
2023-04-03T17:49:46.517Z,40.20
2023-04-03T17:52:15.717Z,40.30
2023-04-03T17:54:44.762Z,40.40
2023-04-03T17:57:13.713Z,40.50
2023-04-03T17:59:40.706Z,40.40
2023-04-03T18:02:10.353Z,40.50
2023-04-03T18:04:39.412Z,40.80
2023-04-03T18:07:09.893Z,40.70
2023-04-03T18:09:40.753Z,40.80
2023-04-03T18:12:09.885Z,40.80
2023-04-03T18:14:40.780Z,40.90
2023-04-03T18:17:12.353Z,41.00
2023-04-03T18:19:41.539Z,41.00
2023-04-03T18:22:20.947Z,41.30
2023-04-03T18:24:52.782Z,40.90
2023-04-03T18:27:26.267Z,41.10
2023-04-03T18:30:01.376Z,41.10
2023-04-03T18:32:33.145Z,41.20
2023-04-03T18:35:06.170Z,41.30
2023-04-03T18:37:37.619Z,41.20
2023-04-03T18:40:05.204Z,41.30
2023-04-03T18:42:32.167Z,41.40
2023-04-03T18:45:04.516Z,41.40
2023-04-03T18:47:36.773Z,42.10
2023-04-03T18:50:08.372Z,41.50
2023-04-03T18:52:35.427Z,41.50
2023-04-03T18:55:07.779Z,42.30
2023-04-03T18:57:37.010Z,41.70
2023-04-03T19:00:05.220Z,41.90
2023-04-03T19:02:32.310Z,41.70
2023-04-03T19:05:07.722Z,41.80
2023-04-03T19:07:35.029Z,41.80
2023-04-03T19:10:02.201Z,41.80
2023-04-03T19:12:35.241Z,41.80
2023-04-03T19:15:04.434Z,41.80
2023-04-03T19:17:33.600Z,41.90
2023-04-03T19:20:00.598Z,41.80
2023-04-03T19:22:27.480Z,41.90
2023-04-03T19:24:56.626Z,42.00
2023-04-03T19:27:25.979Z,42.00
2023-04-03T19:29:52.826Z,42.10
2023-04-03T19:32:19.928Z,42.20
2023-04-03T19:34:47.080Z,42.20
2023-04-03T19:37:17.365Z,42.20
2023-04-03T19:39:48.959Z,42.30
2023-04-03T19:42:18.753Z,42.30
2023-04-03T19:44:50.884Z,42.20
2023-04-03T19:47:19.251Z,42.30
2023-04-03T19:49:48.782Z,42.40
2023-04-03T19:52:24.715Z,42.50
2023-04-03T19:54:52.945Z,42.40
2023-04-03T19:57:24.631Z,42.50
2023-04-03T19:59:53.740Z,42.60
2023-04-03T20:02:21.360Z,42.60
2023-04-03T20:04:48.598Z,42.60
2023-04-03T20:07:15.940Z,42.60
2023-04-03T20:09:44.956Z,42.50
2023-04-03T20:12:12.224Z,42.50
2023-04-03T20:14:40.522Z,42.60
2023-04-03T20:17:09.926Z,42.60
2023-04-03T20:19:41.755Z,42.80
2023-04-03T20:22:10.665Z,42.80
2023-04-03T20:24:42.630Z,42.80
2023-04-03T20:27:11.852Z,42.90
2023-04-03T20:29:39.427Z,42.80
2023-04-03T20:32:10.390Z,42.80
2023-04-03T20:34:37.839Z,42.90
2023-04-03T20:37:05.999Z,42.90
2023-04-03T20:39:33.215Z,43.00
2023-04-03T20:42:07.131Z,43.00
2023-04-03T20:44:36.821Z,43.00
2023-04-03T20:47:05.932Z,43.00
2023-04-03T20:49:33.141Z,43.00
2023-04-03T20:52:00.163Z,43.00
2023-04-03T20:54:29.644Z,43.00
2023-04-03T20:56:56.738Z,43.20
2023-04-03T20:59:26.653Z,43.30
2023-04-03T21:01:53.997Z,43.40
2023-04-03T21:04:46.376Z,43.40
2023-04-03T21:08:10.354Z,43.40
2023-04-03T21:11:33.890Z,43.40
2023-04-03T21:14:57.966Z,43.40
2023-04-03T21:17:26.809Z,43.50
2023-04-03T21:19:58.110Z,43.40
2023-04-03T21:22:27.339Z,43.50
2023-04-03T21:24:54.194Z,43.50
2023-04-03T21:27:21.023Z,43.70
2023-04-03T21:29:48.444Z,43.60
2023-04-03T21:32:15.564Z,44.30
2023-04-03T21:34:42.393Z,43.70
2023-04-03T21:37:11.666Z,43.70
2023-04-03T21:39:44.811Z,43.70
2023-04-03T21:42:13.962Z,43.80
2023-04-03T21:44:41.480Z,43.80
2023-04-03T21:47:12.818Z,43.80
2023-04-03T21:49:42.638Z,43.80
2023-04-03T21:52:11.881Z,43.80
2023-04-03T21:54:40.812Z,43.90
2023-04-03T21:57:11.677Z,44.00
2023-04-03T21:59:41.863Z,44.40
2023-04-03T22:02:11.060Z,44.00
2023-04-03T22:04:38.132Z,44.10
2023-04-03T22:07:05.107Z,44.10
2023-04-03T22:09:34.053Z,44.10
2023-04-03T22:12:01.437Z,44.30
2023-04-03T22:14:35.324Z,44.30
2023-04-03T22:17:05.745Z,44.40
2023-04-03T22:19:32.572Z,44.40
2023-04-03T22:22:07.396Z,44.50
2023-04-03T22:24:36.562Z,44.50
2023-04-03T22:27:03.401Z,44.50
2023-04-03T22:29:33.187Z,44.50
2023-04-03T22:32:00.175Z,44.50
2023-04-03T22:34:32.022Z,44.50
2023-04-03T22:37:03.883Z,44.60
2023-04-03T22:39:33.281Z,44.70
2023-04-03T22:42:02.145Z,44.70
2023-04-03T22:44:36.232Z,44.80
2023-04-03T22:47:03.756Z,44.80
2023-04-03T22:49:33.007Z,44.90
2023-04-03T22:52:02.415Z,44.80
2023-04-03T22:54:34.176Z,44.80
2023-04-03T22:57:01.119Z,45.00
2023-04-03T22:59:30.292Z,44.80
2023-04-03T23:01:59.426Z,44.80
2023-04-03T23:04:26.646Z,44.90
2023-04-03T23:06:53.858Z,44.90
2023-04-03T23:09:23.426Z,44.90
2023-04-03T23:11:52.816Z,45.00
2023-04-03T23:14:24.169Z,45.10
2023-04-03T23:16:53.698Z,45.10
2023-04-03T23:19:22.892Z,45.10
2023-04-03T23:21:51.813Z,45.10
2023-04-03T23:24:23.537Z,45.10
2023-04-03T23:26:55.523Z,45.20
2023-04-03T23:29:25.034Z,45.30
2023-04-03T23:31:52.198Z,45.30
2023-04-03T23:34:21.704Z,45.30
2023-04-03T23:36:51.061Z,45.30
2023-04-03T23:39:21.921Z,45.40
2023-04-03T23:41:50.042Z,45.50
2023-04-03T23:44:19.462Z,45.50
2023-04-03T23:46:48.718Z,45.50
2023-04-03T23:49:16.424Z,45.60
2023-04-03T23:51:43.312Z,45.70
2023-04-03T23:54:15.382Z,45.70
2023-04-03T23:56:44.268Z,45.60
2023-04-03T23:59:15.951Z,45.70
